Arcanum, OH

6:48 PM EDT on March 27, 2015 (GMT -0400)
KOHARCAN1 | | Change Station
CLOSE
Current Station
Personal Weather Station
Location: Arcanum, OH
Elevation: 1063 ft
Nearby Weather Stations

Elev 1063 ft 40.00 °N, 84.58 °W | Updated 2 seconds ago

Overcast
Overcast
28.4 °F
Feels Like 20 °F
N
8.3
Wind Variable Wind from NW
Gusts 15.9 mph

Today
High -- | Low -- °F
--% Chance of Precip.
Yesterday
High -- | Low -- °F
Precip. -- in
7:30 AM 7:57 PM
First Quarter, 56% visible
Pressure 30.02 in
Visibility 10.0 miles
Clouds Scattered Clouds 4500 ft
Overcast 6000 ft
Windchill 20 °F
Dew Point -0 °F
Humidity 28%
Rainfall 0.00 in
Snow Depth Not available.
UV 0 out of 12
Pollen 6.00 out of 12
Air Quality Not available.
Flu Activity Not available.
METAR KVES 272235Z AUTO 32010KT 10SM SCT045 OVC060 M02/M10 A3002 RMK AO2

More Conditions Fewer Conditions

Pressure 30.02 in
Visibility 10.0 miles
Clouds Scattered Clouds 4500 ft
Overcast 6000 ft
Windchill 20 °F
Dew Point -0 °F
Humidity 28%
Rainfall 0.00 in
Snow Depth Not available.
UV 0 out of 12
Pollen 6.00 out of 12
Air Quality Not available.
Flu Activity Not available.
METAR KVES 272235Z AUTO 32010KT 10SM SCT045 OVC060 M02/M10 A3002 RMK AO2

More Conditions Fewer Conditions

10-Day Weather Forecast

Almanac

Astronomy

Mar. 27, 2015 Rise Set
Actual Time
Civil Twilight
Nautical Twilight
Astronomical Twilight
Moon
Length of Visible Light
Length of Day
Tomorrow will be .
, % of the Moon is Illuminated

Today's Extremes

State Highs State Lows

Community

WunderPhotos

Upload Photos

1,808,856 photos uploaded!

WunderBlogs® & News

Nearby

Air Quality

  Air Quality AQ Index Pollutant
Not available.

Snow Depth

Station Depth Elevation

Earthquake Activity

City Distance Mag. Time & Date
Minimum magnitude displayed is 2.5.

Coastal Water Temperatures

Place Temperature

Stations

Nearby Weather Stations

Station Location Temp. Windchill Dew Point Humidity Wind Precip. Elev Updated Type